createdAt,value
2023-03-07T00:00:00.708Z,4.80
2023-03-07T00:00:33.603Z,4.80
2023-03-07T00:01:06.155Z,4.80
2023-03-07T00:01:38.059Z,4.70
2023-03-07T00:02:10.931Z,4.70
2023-03-07T00:02:42.893Z,4.70
2023-03-07T00:03:16.798Z,4.80
2023-03-07T00:03:48.704Z,4.70
2023-03-07T00:04:21.565Z,4.70
2023-03-07T00:04:53.491Z,4.80
2023-03-07T00:05:25.695Z,4.80
2023-03-07T00:06:03.862Z,4.80
2023-03-07T00:06:35.699Z,4.80
2023-03-07T00:07:07.565Z,4.80
2023-03-07T00:07:40.400Z,4.80
2023-03-07T00:08:12.623Z,4.80
2023-03-07T00:08:44.564Z,4.80
2023-03-07T00:09:17.531Z,4.80
2023-03-07T00:09:49.412Z,4.80
2023-03-07T00:10:21.363Z,4.90
2023-03-07T00:10:54.275Z,4.90
2023-03-07T00:11:26.840Z,4.90
2023-03-07T00:11:59.688Z,4.90
2023-03-07T00:12:31.515Z,5.00
2023-03-07T00:13:04.060Z,5.00
2023-03-07T00:13:38.996Z,5.00
2023-03-07T00:14:11.188Z,5.00
2023-03-07T00:14:43.103Z,5.00
2023-03-07T00:15:16.128Z,5.00
2023-03-07T00:15:48.041Z,5.00
2023-03-07T00:16:21.997Z,5.00
2023-03-07T00:16:54.885Z,5.00
2023-03-07T00:17:26.764Z,5.00
2023-03-07T00:17:58.734Z,5.00
2023-03-07T00:18:30.788Z,5.00
2023-03-07T00:19:03.644Z,5.00
2023-03-07T00:19:35.499Z,5.00
2023-03-07T00:20:10.904Z,5.00
2023-03-07T00:20:44.343Z,5.00
2023-03-07T00:21:19.231Z,5.00
2023-03-07T00:21:52.161Z,5.00
2023-03-07T00:22:24.004Z,5.00
2023-03-07T00:22:55.858Z,5.10
2023-03-07T00:23:28.773Z,5.10
2023-03-07T00:24:00.703Z,5.10
2023-03-07T00:24:32.548Z,5.10
2023-03-07T00:25:06.448Z,5.10
2023-03-07T00:25:38.334Z,5.10
2023-03-07T00:26:13.702Z,5.20
2023-03-07T00:26:46.610Z,5.20
2023-03-07T00:27:18.456Z,5.10
2023-03-07T00:27:50.306Z,5.10
2023-03-07T00:28:23.464Z,5.20
2023-03-07T00:28:55.835Z,5.20
2023-03-07T00:29:27.918Z,5.20
2023-03-07T00:30:00.865Z,5.20
2023-03-07T00:30:32.715Z,5.20
2023-03-07T00:31:07.135Z,5.20
2023-03-07T00:31:40.150Z,5.10
2023-03-07T00:32:12.136Z,5.10
2023-03-07T00:32:44.109Z,5.10
2023-03-07T00:33:17.081Z,5.10
2023-03-07T00:33:49.671Z,5.00
2023-03-07T00:34:21.497Z,5.10
2023-03-07T00:34:54.434Z,5.10
2023-03-07T00:35:26.492Z,5.00
2023-03-07T00:35:59.864Z,5.00
2023-03-07T00:36:34.205Z,5.00
2023-03-07T00:37:06.155Z,5.00
2023-03-07T00:37:38.535Z,5.00
2023-03-07T00:38:10.368Z,5.00
2023-03-07T00:38:43.732Z,5.00
2023-03-07T00:39:15.755Z,5.00
2023-03-07T00:40:20.392Z,5.00
2023-03-07T00:41:00.098Z,5.00
2023-03-07T00:41:31.949Z,5.00
2023-03-07T00:42:05.056Z,5.00
2023-03-07T00:42:36.918Z,5.10
2023-03-07T00:43:08.773Z,5.10
2023-03-07T00:43:42.032Z,5.10
2023-03-07T00:44:13.875Z,5.10
2023-03-07T00:44:45.734Z,5.10
2023-03-07T00:45:18.566Z,5.10
2023-03-07T00:45:50.539Z,5.20
2023-03-07T00:46:24.373Z,5.20
2023-03-07T00:46:57.485Z,5.20
2023-03-07T00:47:29.341Z,5.20
2023-03-07T00:48:01.228Z,5.20
2023-03-07T00:48:35.014Z,5.20
2023-03-07T00:49:06.905Z,5.20
2023-03-07T00:49:38.768Z,5.20
2023-03-07T00:50:12.295Z,5.20
2023-03-07T00:50:44.163Z,5.20
2023-03-07T00:51:17.912Z,5.20
2023-03-07T00:51:51.276Z,5.10
2023-03-07T00:52:24.161Z,5.10
2023-03-07T00:52:56.031Z,5.10
2023-03-07T00:53:28.071Z,5.10
2023-03-07T00:54:01.433Z,5.10
2023-03-07T00:54:33.348Z,5.00
2023-03-07T00:55:06.148Z,5.00
2023-03-07T00:55:37.997Z,5.00
2023-03-07T00:56:15.219Z,5.00
2023-03-07T00:56:47.117Z,5.00
2023-03-07T00:57:19.922Z,5.00
2023-03-07T00:57:51.739Z,5.00
2023-03-07T00:58:23.736Z,5.00
2023-03-07T00:58:56.560Z,5.00
2023-03-07T00:59:28.441Z,4.90
2023-03-07T01:00:00.311Z,4.90
2023-03-07T01:00:32.223Z,4.90
2023-03-07T01:01:06.977Z,4.90
2023-03-07T01:01:38.895Z,4.90
2023-03-07T01:02:10.747Z,4.90
2023-03-07T01:02:43.592Z,4.90
2023-03-07T01:03:15.671Z,5.00
2023-03-07T01:03:49.661Z,5.00
2023-03-07T01:04:22.681Z,5.00
2023-03-07T01:04:54.606Z,5.00
2023-03-07T01:05:26.419Z,5.00
2023-03-07T01:06:02.682Z,5.00
2023-03-07T01:06:35.111Z,5.10
2023-03-07T01:07:09.338Z,5.10
2023-03-07T01:07:41.167Z,5.10
2023-03-07T01:08:13.202Z,5.10
2023-03-07T01:08:46.389Z,5.10
2023-03-07T01:09:18.271Z,5.20
2023-03-07T01:09:51.266Z,5.20
2023-03-07T01:10:24.101Z,5.10
2023-03-07T01:10:58.909Z,5.20
2023-03-07T01:11:31.849Z,5.10
2023-03-07T01:12:07.162Z,5.10
2023-03-07T01:12:39.091Z,5.10
2023-03-07T01:13:11.781Z,5.10
2023-03-07T01:13:44.913Z,5.10
2023-03-07T01:14:16.829Z,5.10
2023-03-07T01:14:50.619Z,5.10
2023-03-07T01:15:23.060Z,5.10
2023-03-07T01:15:55.929Z,5.10
2023-03-07T01:16:30.204Z,5.10
2023-03-07T01:17:02.218Z,5.00
2023-03-07T01:17:35.091Z,5.00
2023-03-07T01:18:08.449Z,5.00
2023-03-07T01:18:40.770Z,5.00
2023-03-07T01:19:13.902Z,5.00
2023-03-07T01:19:45.766Z,5.00
2023-03-07T01:20:17.942Z,5.00
2023-03-07T01:20:49.779Z,5.00
2023-03-07T01:21:24.394Z,5.00
2023-03-07T01:21:56.259Z,5.00
2023-03-07T01:22:31.251Z,5.00
2023-03-07T01:23:04.883Z,5.20
2023-03-07T01:23:36.718Z,5.00
2023-03-07T01:24:12.296Z,5.00
2023-03-07T01:24:45.150Z,5.00
2023-03-07T01:25:17.086Z,5.00
2023-03-07T01:25:49.532Z,5.00
2023-03-07T01:26:23.854Z,5.00
2023-03-07T01:26:55.696Z,5.00
2023-03-07T01:27:27.556Z,5.00
2023-03-07T01:28:00.389Z,4.90
2023-03-07T01:28:32.251Z,4.90
2023-03-07T01:29:06.048Z,4.90
2023-03-07T01:29:38.957Z,4.80
2023-03-07T01:30:11.696Z,4.80
2023-03-07T01:30:43.648Z,4.80
2023-03-07T01:31:16.499Z,4.80
2023-03-07T01:31:48.448Z,4.80
2023-03-07T01:32:20.305Z,4.80
2023-03-07T01:32:56.841Z,4.80
2023-03-07T01:33:28.736Z,4.80
2023-03-07T01:34:02.207Z,4.80
2023-03-07T01:34:35.232Z,4.80
2023-03-07T01:35:07.868Z,4.80
2023-03-07T01:35:40.475Z,4.80
2023-03-07T01:36:19.431Z,4.80
2023-03-07T01:36:51.480Z,4.80
2023-03-07T01:37:23.568Z,4.80
2023-03-07T01:37:57.976Z,4.80
2023-03-07T01:38:33.837Z,4.80
2023-03-07T01:39:07.962Z,4.80
2023-03-07T01:39:40.892Z,4.80
2023-03-07T01:40:13.499Z,4.70
2023-03-07T01:40:45.336Z,4.70
2023-03-07T01:41:18.412Z,4.70
2023-03-07T01:41:50.381Z,4.70
2023-03-07T01:42:22.399Z,4.60
2023-03-07T01:42:55.310Z,4.60
2023-03-07T01:43:28.957Z,4.60
2023-03-07T01:44:02.295Z,4.60
2023-03-07T01:45:00.405Z,4.50
2023-03-07T01:46:18.257Z,4.50
2023-03-07T01:46:53.125Z,4.40
2023-03-07T01:47:25.075Z,4.40
2023-03-07T01:47:56.907Z,4.50
2023-03-07T01:48:28.898Z,4.50
2023-03-07T01:49:07.355Z,4.50
2023-03-07T01:49:42.603Z,4.50
2023-03-07T01:50:18.732Z,4.40
2023-03-07T01:50:50.695Z,4.30
2023-03-07T01:51:23.218Z,4.30
2023-03-07T01:52:00.995Z,4.30
2023-03-07T01:52:34.853Z,4.40
2023-03-07T01:53:09.552Z,4.40
2023-03-07T01:53:41.588Z,4.30
2023-03-07T01:54:18.252Z,4.30
2023-03-07T01:54:53.961Z,4.30
2023-03-07T01:55:29.764Z,4.40
2023-03-07T01:56:02.714Z,4.30
2023-03-07T01:56:35.717Z,4.30
2023-03-07T01:57:09.540Z,4.40
2023-03-07T01:57:43.274Z,4.40
2023-03-07T01:58:15.623Z,4.30
2023-03-07T01:58:47.743Z,4.30
2023-03-07T01:59:26.477Z,4.30
2023-03-07T02:00:01.308Z,4.30
2023-03-07T02:00:36.208Z,4.30
2023-03-07T02:01:13.558Z,4.30
2023-03-07T02:01:45.540Z,4.30
2023-03-07T02:02:22.714Z,4.30
2023-03-07T02:03:02.691Z,4.30
2023-03-07T02:03:39.910Z,4.40
2023-03-07T02:04:17.999Z,4.30
2023-03-07T02:04:53.886Z,4.30
2023-03-07T02:05:32.241Z,4.30
2023-03-07T02:06:09.564Z,4.30
2023-03-07T02:06:41.429Z,4.30
2023-03-07T02:07:15.170Z,4.30
2023-03-07T02:07:50.807Z,4.40
2023-03-07T02:08:27.500Z,4.40
2023-03-07T02:09:01.454Z,4.40
2023-03-07T02:09:35.183Z,4.40
2023-03-07T02:10:08.452Z,4.40
2023-03-07T02:10:42.475Z,4.40
2023-03-07T02:11:14.536Z,4.30
2023-03-07T02:11:47.447Z,4.40
2023-03-07T02:12:23.007Z,4.30
2023-03-07T02:12:55.081Z,4.30
2023-03-07T02:13:27.079Z,4.30
2023-03-07T02:13:59.226Z,4.30
2023-03-07T02:14:32.134Z,4.30
2023-03-07T02:15:04.743Z,4.40
2023-03-07T02:15:37.257Z,4.30
2023-03-07T02:16:10.429Z,4.30
2023-03-07T02:16:42.844Z,4.30
2023-03-07T02:17:14.777Z,4.30
2023-03-07T02:17:48.475Z,4.30
2023-03-07T02:18:24.416Z,4.30
2023-03-07T02:18:56.748Z,4.30
2023-03-07T02:19:45.662Z,4.30
2023-03-07T02:20:31.800Z,4.30
2023-03-07T02:21:09.318Z,4.30
2023-03-07T02:21:49.680Z,4.30
2023-03-07T02:22:21.574Z,4.20
2023-03-07T02:22:54.710Z,4.20
2023-03-07T02:23:35.973Z,4.20
2023-03-07T02:24:17.836Z,4.20
2023-03-07T02:24:53.259Z,4.20
2023-03-07T02:25:32.354Z,4.20
2023-03-07T02:26:12.057Z,4.20
2023-03-07T02:26:46.411Z,4.20
2023-03-07T02:27:19.443Z,4.20
2023-03-07T02:27:53.946Z,4.20
2023-03-07T02:28:26.887Z,4.20
2023-03-07T02:28:59.793Z,4.20
2023-03-07T02:29:32.739Z,4.20
2023-03-07T02:30:05.530Z,4.20
2023-03-07T02:30:37.732Z,4.20
2023-03-07T02:31:11.603Z,4.20
2023-03-07T02:31:43.620Z,4.20
2023-03-07T02:32:15.714Z,4.20
2023-03-07T02:32:48.634Z,4.20
2023-03-07T02:33:24.717Z,4.20
2023-03-07T02:33:56.583Z,4.20
2023-03-07T02:34:31.243Z,4.30
2023-03-07T02:35:10.344Z,4.20
2023-03-07T02:35:43.267Z,4.20
2023-03-07T02:36:18.906Z,4.20
2023-03-07T02:36:54.548Z,4.20
2023-03-07T02:37:31.481Z,4.20
2023-03-07T02:38:05.741Z,4.30
2023-03-07T02:38:39.972Z,4.30
2023-03-07T02:39:12.358Z,4.30
2023-03-07T02:39:46.562Z,4.30
2023-03-07T02:40:23.252Z,4.30
2023-03-07T02:40:56.648Z,4.30
2023-03-07T02:41:32.969Z,4.30
2023-03-07T02:42:11.139Z,4.30
2023-03-07T02:42:44.022Z,4.40
2023-03-07T02:43:16.419Z,4.40
2023-03-07T02:43:49.271Z,4.40
2023-03-07T02:44:21.198Z,4.40
2023-03-07T02:44:57.874Z,4.40
2023-03-07T02:45:30.801Z,4.40
2023-03-07T02:46:02.786Z,4.40
2023-03-07T02:46:34.904Z,4.40
2023-03-07T02:47:09.751Z,4.40
2023-03-07T02:47:42.272Z,4.40
2023-03-07T02:48:14.284Z,4.50
2023-03-07T02:48:47.206Z,4.50
2023-03-07T02:49:19.156Z,4.50
2023-03-07T02:49:51.051Z,4.50
2023-03-07T02:50:22.883Z,4.60
2023-03-07T02:50:55.913Z,4.50
2023-03-07T02:51:27.777Z,4.60
2023-03-07T02:52:00.640Z,4.50
2023-03-07T02:52:33.572Z,4.60
2023-03-07T02:53:05.405Z,4.60
2023-03-07T02:53:37.324Z,4.50
2023-03-07T02:54:10.708Z,4.50
2023-03-07T02:54:42.523Z,4.50
2023-03-07T02:55:14.360Z,4.50
2023-03-07T02:55:47.270Z,4.50
2023-03-07T02:56:19.154Z,4.50
2023-03-07T02:56:51.036Z,4.50
2023-03-07T02:57:25.389Z,4.50
2023-03-07T02:57:57.447Z,4.50
2023-03-07T02:58:29.280Z,4.40
2023-03-07T02:59:01.167Z,4.40
2023-03-07T02:59:33.987Z,4.30
2023-03-07T03:00:07.574Z,4.30
2023-03-07T03:00:39.544Z,4.30
2023-03-07T03:01:12.619Z,4.30
2023-03-07T03:01:44.527Z,4.30
2023-03-07T03:02:16.528Z,4.30
2023-03-07T03:02:49.378Z,4.30
2023-03-07T03:03:21.393Z,4.30
2023-03-07T03:03:53.393Z,4.30
2023-03-07T03:04:26.281Z,4.30
2023-03-07T03:04:58.203Z,4.30
2023-03-07T03:05:30.105Z,4.30
2023-03-07T03:06:02.950Z,4.30
2023-03-07T03:06:34.769Z,4.30
2023-03-07T03:07:06.867Z,4.40
2023-03-07T03:07:38.762Z,4.30
2023-03-07T03:08:12.631Z,4.40
2023-03-07T03:08:44.642Z,4.40
2023-03-07T03:09:16.846Z,4.40
2023-03-07T03:09:49.663Z,4.40
2023-03-07T03:10:21.780Z,4.40
2023-03-07T03:10:53.857Z,4.40
2023-03-07T03:11:26.715Z,4.40
2023-03-07T03:11:58.902Z,4.40
2023-03-07T03:12:32.145Z,4.40
2023-03-07T03:13:05.522Z,4.30
2023-03-07T03:13:39.014Z,4.30
2023-03-07T03:14:11.077Z,4.30
2023-03-07T03:14:43.941Z,4.30
2023-03-07T03:15:15.884Z,4.30
2023-03-07T03:15:48.419Z,4.30
2023-03-07T03:16:21.318Z,4.30
2023-03-07T03:16:53.736Z,4.30
2023-03-07T03:17:25.619Z,4.30
2023-03-07T03:17:58.492Z,4.30
2023-03-07T03:18:31.016Z,4.30
2023-03-07T03:19:03.539Z,4.20
2023-03-07T03:19:36.478Z,4.30
2023-03-07T03:20:11.775Z,4.20
2023-03-07T03:20:43.630Z,4.20
2023-03-07T03:21:16.456Z,4.30
2023-03-07T03:21:48.706Z,4.20
2023-03-07T03:22:20.746Z,4.20
2023-03-07T03:22:53.764Z,4.30
2023-03-07T03:23:28.062Z,4.30
2023-03-07T03:24:05.046Z,4.30
2023-03-07T03:24:39.643Z,4.30
2023-03-07T03:25:13.338Z,4.30
2023-03-07T03:25:45.215Z,4.30
2023-03-07T03:26:18.410Z,4.30
2023-03-07T03:26:50.266Z,4.30
2023-03-07T03:27:22.147Z,4.30
2023-03-07T03:27:56.375Z,4.30
2023-03-07T03:28:29.047Z,4.30
2023-03-07T03:29:01.124Z,4.20
2023-03-07T03:29:34.231Z,4.20
2023-03-07T03:30:08.852Z,4.20
2023-03-07T03:30:40.741Z,4.10
2023-03-07T03:31:15.231Z,4.10
2023-03-07T03:31:47.211Z,4.10
2023-03-07T03:32:19.094Z,4.10
2023-03-07T03:32:52.055Z,4.10
2023-03-07T03:33:23.988Z,4.00
2023-03-07T03:33:55.944Z,4.00
2023-03-07T03:34:28.803Z,4.00
2023-03-07T03:35:00.798Z,4.00
2023-03-07T03:35:33.452Z,4.00
2023-03-07T03:36:10.420Z,4.00
2023-03-07T03:36:43.312Z,4.00
2023-03-07T03:37:15.337Z,4.00
2023-03-07T03:37:47.213Z,4.00
2023-03-07T03:38:19.098Z,4.00
2023-03-07T03:38:53.606Z,4.00
2023-03-07T03:39:25.620Z,4.10
2023-03-07T03:39:57.475Z,4.10
2023-03-07T03:40:31.106Z,4.10
2023-03-07T03:41:05.578Z,4.10
2023-03-07T03:41:37.586Z,4.10
2023-03-07T03:42:10.432Z,4.20
2023-03-07T03:42:42.701Z,4.20
2023-03-07T03:43:16.121Z,4.20
2023-03-07T03:43:48.056Z,4.20
2023-03-07T03:44:20.928Z,4.20
2023-03-07T03:44:52.764Z,4.20
2023-03-07T03:45:24.637Z,4.20
2023-03-07T03:45:58.407Z,4.30
2023-03-07T03:46:30.314Z,4.30
2023-03-07T03:47:02.307Z,4.30
2023-03-07T03:47:35.153Z,4.40
2023-03-07T03:48:07.333Z,4.30
2023-03-07T03:48:39.448Z,4.30
2023-03-07T03:49:13.956Z,4.30
2023-03-07T03:49:45.842Z,4.30
2023-03-07T03:50:17.866Z,4.30
2023-03-07T03:50:50.769Z,4.20
2023-03-07T03:51:23.861Z,4.30
2023-03-07T03:51:55.750Z,4.30
2023-03-07T03:52:28.736Z,4.30
2023-03-07T03:53:00.711Z,4.30
2023-03-07T03:53:33.266Z,4.30
2023-03-07T03:54:06.226Z,4.30
2023-03-07T03:54:38.146Z,4.30
2023-03-07T03:55:10.416Z,4.20
2023-03-07T03:55:43.393Z,4.30
2023-03-07T03:56:17.821Z,4.30
2023-03-07T03:56:49.692Z,4.30
2023-03-07T03:57:22.527Z,4.30
2023-03-07T03:57:54.387Z,4.30
2023-03-07T03:58:27.716Z,4.30
2023-03-07T03:59:00.626Z,4.30
2023-03-07T03:59:32.603Z,4.30
2023-03-07T04:00:05.514Z,4.30
2023-03-07T04:00:38.475Z,4.30
2023-03-07T04:01:11.957Z,4.30
2023-03-07T04:01:43.928Z,4.40
2023-03-07T04:02:17.986Z,4.40
2023-03-07T04:02:50.008Z,4.40
2023-03-07T04:03:21.998Z,4.40
2023-03-07T04:03:54.555Z,4.40
2023-03-07T04:04:27.499Z,4.40
2023-03-07T04:04:59.389Z,4.30
2023-03-07T04:05:33.894Z,4.50
2023-03-07T04:06:08.983Z,4.30
2023-03-07T04:06:40.901Z,4.30
2023-03-07T04:07:12.802Z,4.30
2023-03-07T04:07:45.693Z,4.30
2023-03-07T04:08:17.566Z,4.30
2023-03-07T04:08:50.312Z,4.20
2023-03-07T04:09:23.187Z,4.20
2023-03-07T04:09:55.067Z,4.20
2023-03-07T04:10:27.044Z,4.20
2023-03-07T04:10:59.012Z,4.20
2023-03-07T04:11:31.914Z,4.20
2023-03-07T04:12:04.008Z,4.20
2023-03-07T04:12:36.126Z,4.20
2023-03-07T04:13:07.984Z,4.20
2023-03-07T04:13:42.242Z,4.20
2023-03-07T04:14:14.095Z,4.20
2023-03-07T04:14:46.225Z,4.20
2023-03-07T04:15:19.046Z,4.20
2023-03-07T04:15:52.057Z,4.20
2023-03-07T04:16:23.950Z,4.20
2023-03-07T04:16:56.791Z,4.20
2023-03-07T04:17:28.664Z,4.20
2023-03-07T04:18:00.602Z,4.20
2023-03-07T04:18:32.687Z,4.20
2023-03-07T04:19:05.656Z,4.20
2023-03-07T04:19:38.247Z,4.20
2023-03-07T04:20:17.285Z,4.20
2023-03-07T04:20:50.937Z,4.20
2023-03-07T04:21:23.236Z,4.20
2023-03-07T04:21:55.109Z,4.20
2023-03-07T04:22:27.995Z,4.20
2023-03-07T04:22:59.908Z,4.20
2023-03-07T04:23:32.800Z,4.20
2023-03-07T04:24:06.134Z,4.20
2023-03-07T04:24:38.026Z,4.20
2023-03-07T04:25:10.458Z,4.20
2023-03-07T04:25:48.449Z,4.20
2023-03-07T04:26:20.317Z,4.20
2023-03-07T04:26:52.169Z,4.20
2023-03-07T04:27:25.095Z,4.20
2023-03-07T04:27:57.299Z,4.20
2023-03-07T04:28:41.699Z,4.20
2023-03-07T04:29:15.946Z,4.10
2023-03-07T04:29:47.826Z,4.10
2023-03-07T04:30:20.002Z,4.10
2023-03-07T04:30:53.446Z,4.10
2023-03-07T04:31:27.729Z,4.10
2023-03-07T04:32:00.015Z,4.00
2023-03-07T04:32:33.099Z,4.00
2023-03-07T04:33:04.976Z,4.00
2023-03-07T04:33:36.864Z,4.00
2023-03-07T04:34:09.727Z,4.00
2023-03-07T04:34:41.659Z,4.00
2023-03-07T04:35:13.514Z,4.00
2023-03-07T04:35:46.880Z,4.10
2023-03-07T04:36:20.637Z,4.10
2023-03-07T04:36:52.498Z,4.10
2023-03-07T04:37:24.349Z,4.10
2023-03-07T04:37:57.200Z,4.10
2023-03-07T04:38:29.088Z,4.10
2023-03-07T04:39:00.937Z,4.10
2023-03-07T04:39:33.760Z,4.10
2023-03-07T04:40:06.638Z,4.10
2023-03-07T04:40:38.524Z,4.10
2023-03-07T04:41:13.836Z,4.10
2023-03-07T04:41:45.767Z,4.10
2023-03-07T04:42:17.828Z,4.10
2023-03-07T04:42:50.696Z,4.10
2023-03-07T04:43:22.613Z,4.00
2023-03-07T04:43:54.491Z,4.00
2023-03-07T04:44:28.722Z,3.90
2023-03-07T04:45:00.597Z,4.00
2023-03-07T04:45:34.651Z,4.00
2023-03-07T04:46:07.696Z,3.90
2023-03-07T04:46:40.098Z,4.00
2023-03-07T04:47:11.980Z,4.00
2023-03-07T04:47:44.997Z,3.90
2023-03-07T04:48:16.845Z,3.90
2023-03-07T04:48:48.727Z,3.90
2023-03-07T04:49:21.540Z,3.90
2023-03-07T04:49:53.430Z,3.90
2023-03-07T04:50:25.304Z,3.90
2023-03-07T04:50:58.388Z,3.90
2023-03-07T04:51:30.243Z,3.90
2023-03-07T04:52:02.115Z,3.90
2023-03-07T04:52:34.984Z,3.90
2023-03-07T04:53:06.848Z,3.90
2023-03-07T04:53:38.743Z,3.90
2023-03-07T04:54:12.429Z,3.80
2023-03-07T04:54:45.051Z,3.80
2023-03-07T04:55:17.100Z,4.00
2023-03-07T04:55:50.081Z,3.80
2023-03-07T04:56:21.950Z,3.80
2023-03-07T04:56:53.850Z,3.80
2023-03-07T04:57:26.689Z,3.80
2023-03-07T04:57:58.559Z,3.80
2023-03-07T04:58:31.499Z,3.80
2023-03-07T04:59:04.408Z,3.80
2023-03-07T04:59:39.415Z,3.80
2023-03-07T05:00:12.532Z,3.80
2023-03-07T05:00:45.735Z,3.80
2023-03-07T05:01:18.758Z,3.80
2023-03-07T05:01:50.819Z,3.80
2023-03-07T05:02:22.748Z,3.80
2023-03-07T05:02:57.292Z,3.80
2023-03-07T05:03:30.899Z,3.80
2023-03-07T05:04:02.868Z,3.80
2023-03-07T05:04:34.951Z,3.80
2023-03-07T05:05:08.366Z,3.80
2023-03-07T05:05:40.379Z,3.80
2023-03-07T05:06:14.831Z,3.80
2023-03-07T05:06:47.732Z,3.80
2023-03-07T05:07:19.623Z,3.80
2023-03-07T05:07:51.477Z,3.80
2023-03-07T05:08:24.331Z,3.80
2023-03-07T05:08:56.244Z,3.80
2023-03-07T05:09:29.199Z,3.80
2023-03-07T05:10:01.095Z,3.80
2023-03-07T05:10:33.641Z,3.80
2023-03-07T05:11:06.739Z,3.90
2023-03-07T05:11:38.579Z,3.80
2023-03-07T05:12:11.749Z,3.80
2023-03-07T05:12:43.658Z,3.70
2023-03-07T05:13:15.896Z,3.70
2023-03-07T05:13:48.771Z,3.70
2023-03-07T05:14:20.657Z,3.70
2023-03-07T05:14:53.896Z,3.70
2023-03-07T05:15:26.793Z,3.70
2023-03-07T05:15:59.626Z,3.70
2023-03-07T05:16:33.506Z,3.70
2023-03-07T05:17:05.461Z,3.70
2023-03-07T05:17:37.629Z,3.70
2023-03-07T05:18:10.507Z,3.60
2023-03-07T05:18:42.354Z,3.70
2023-03-07T05:19:14.261Z,3.60
2023-03-07T05:19:47.191Z,3.60
2023-03-07T05:20:19.426Z,3.60
2023-03-07T05:20:51.676Z,3.60
2023-03-07T05:21:24.558Z,3.60
2023-03-07T05:21:56.413Z,3.70
2023-03-07T05:22:28.264Z,3.60
2023-03-07T05:23:01.153Z,3.60
2023-03-07T05:23:33.054Z,3.60
2023-03-07T05:24:05.318Z,3.60
2023-03-07T05:24:38.196Z,3.60
2023-03-07T05:25:10.182Z,3.60
2023-03-07T05:25:43.520Z,3.60
2023-03-07T05:26:16.514Z,3.60
2023-03-07T05:26:48.412Z,3.60
2023-03-07T05:27:20.257Z,3.60
2023-03-07T05:27:53.128Z,3.60
2023-03-07T05:28:25.153Z,3.60
2023-03-07T05:28:56.991Z,3.60
2023-03-07T05:29:30.045Z,3.60
2023-03-07T05:30:03.860Z,3.60
2023-03-07T05:30:35.712Z,3.50
2023-03-07T05:31:08.649Z,3.60
2023-03-07T05:31:40.574Z,3.60
2023-03-07T05:32:12.519Z,3.50
2023-03-07T05:32:45.461Z,3.50
2023-03-07T05:33:17.523Z,3.50
2023-03-07T05:33:49.432Z,3.50
2023-03-07T05:34:22.349Z,3.50
2023-03-07T05:34:54.299Z,3.50
2023-03-07T05:35:26.236Z,3.50
2023-03-07T05:36:00.948Z,3.50
2023-03-07T05:36:32.887Z,3.50
2023-03-07T05:37:04.875Z,3.50
2023-03-07T05:37:36.871Z,3.50
2023-03-07T05:38:09.835Z,3.50
2023-03-07T05:38:41.760Z,3.50
2023-03-07T05:39:15.457Z,3.50
2023-03-07T05:39:47.381Z,3.50
2023-03-07T05:40:19.611Z,3.50
2023-03-07T05:40:52.463Z,3.50
2023-03-07T05:41:24.398Z,3.50
2023-03-07T05:41:56.272Z,3.40
2023-03-07T05:42:29.173Z,3.50
2023-03-07T05:43:01.168Z,3.50
2023-03-07T05:43:34.262Z,3.50
2023-03-07T05:44:06.229Z,3.40
2023-03-07T05:44:38.094Z,3.40
2023-03-07T05:45:13.130Z,3.50
2023-03-07T05:45:44.978Z,3.50
2023-03-07T05:46:17.945Z,3.50
2023-03-07T05:46:49.803Z,3.50
2023-03-07T05:47:21.700Z,3.50
2023-03-07T05:47:54.566Z,3.50
2023-03-07T05:48:26.501Z,3.50
2023-03-07T05:48:59.369Z,3.50
2023-03-07T05:49:31.255Z,3.50
2023-03-07T05:50:03.541Z,3.50
2023-03-07T05:50:37.959Z,3.50
2023-03-07T05:51:09.826Z,3.50
2023-03-07T05:51:41.709Z,3.50
2023-03-07T05:52:13.612Z,3.50
2023-03-07T05:52:46.444Z,3.50
2023-03-07T05:53:18.343Z,3.50
2023-03-07T05:53:50.247Z,3.50
2023-03-07T05:54:23.166Z,3.50
2023-03-07T05:54:55.238Z,3.50
2023-03-07T05:55:27.150Z,3.50
2023-03-07T05:56:00.013Z,3.50
2023-03-07T05:56:32.582Z,3.50
2023-03-07T05:57:04.517Z,3.40
2023-03-07T05:57:37.395Z,3.40
2023-03-07T05:58:09.353Z,3.40
2023-03-07T05:58:41.258Z,3.40
2023-03-07T05:59:15.536Z,3.40
2023-03-07T05:59:47.480Z,3.40
2023-03-07T06:00:22.058Z,3.50
2023-03-07T06:00:54.966Z,3.40
2023-03-07T06:01:26.886Z,3.40
2023-03-07T06:01:58.766Z,3.50
2023-03-07T06:02:31.678Z,3.50
2023-03-07T06:03:04.053Z,3.50
2023-03-07T06:03:36.004Z,3.50
2023-03-07T06:04:09.497Z,3.50
2023-03-07T06:04:41.450Z,3.50
2023-03-07T06:05:14.155Z,3.50
2023-03-07T06:05:50.058Z,3.50
2023-03-07T06:06:21.920Z,3.40
2023-03-07T06:06:54.784Z,3.40
2023-03-07T06:07:27.158Z,3.40
2023-03-07T06:07:58.976Z,3.40
2023-03-07T06:08:31.862Z,3.40
2023-03-07T06:09:05.591Z,3.40
2023-03-07T06:09:37.462Z,3.40
2023-03-07T06:10:13.184Z,3.40
2023-03-07T06:10:48.758Z,3.40
2023-03-07T06:11:21.067Z,3.40
2023-03-07T06:11:53.965Z,3.40
2023-03-07T06:12:25.844Z,3.40
2023-03-07T06:12:57.733Z,3.50
2023-03-07T06:13:31.052Z,3.40
2023-03-07T06:14:02.927Z,3.50
2023-03-07T06:14:34.779Z,3.40
2023-03-07T06:15:08.808Z,3.50
2023-03-07T06:15:42.150Z,3.50
2023-03-07T06:16:14.108Z,3.50
2023-03-07T06:16:47.010Z,3.50
2023-03-07T06:17:18.862Z,3.40
2023-03-07T06:17:52.474Z,3.50
2023-03-07T06:18:26.941Z,3.50
2023-03-07T06:18:58.810Z,3.50
2023-03-07T06:19:30.960Z,3.50
2023-03-07T06:20:04.228Z,3.50
2023-03-07T06:20:36.077Z,3.50
2023-03-07T06:21:09.823Z,3.50
2023-03-07T06:21:43.490Z,3.50
2023-03-07T06:22:15.365Z,3.60
2023-03-07T06:22:47.248Z,3.60
2023-03-07T06:23:20.092Z,3.60
2023-03-07T06:23:52.020Z,3.60
2023-03-07T06:24:23.857Z,3.60
2023-03-07T06:24:56.664Z,3.60
2023-03-07T06:25:28.560Z,3.60
2023-03-07T06:26:01.352Z,3.60
2023-03-07T06:26:34.518Z,3.60
2023-03-07T06:27:06.445Z,3.60
2023-03-07T06:27:38.919Z,3.60
2023-03-07T06:28:11.753Z,3.70
2023-03-07T06:28:43.669Z,3.70
2023-03-07T06:29:15.587Z,3.60
2023-03-07T06:29:48.465Z,3.60
2023-03-07T06:30:20.396Z,3.70
2023-03-07T06:30:53.830Z,3.70
2023-03-07T06:31:26.728Z,3.70
2023-03-07T06:31:59.350Z,3.70
2023-03-07T06:32:31.954Z,3.70
2023-03-07T06:33:04.954Z,3.70
2023-03-07T06:33:37.004Z,3.70
2023-03-07T06:34:08.874Z,3.70
2023-03-07T06:34:41.747Z,3.70
2023-03-07T06:35:13.614Z,3.60
2023-03-07T06:35:46.269Z,3.70
2023-03-07T06:36:20.192Z,3.70
2023-03-07T06:36:52.090Z,3.80
2023-03-07T06:37:24.375Z,3.70
2023-03-07T06:37:57.278Z,3.80
2023-03-07T06:38:29.126Z,3.70
2023-03-07T06:39:01.012Z,3.80
2023-03-07T06:39:33.849Z,3.80
2023-03-07T06:40:09.305Z,3.80
2023-03-07T06:40:42.413Z,3.80
2023-03-07T06:41:14.410Z,3.80
2023-03-07T06:41:46.954Z,3.80
2023-03-07T06:42:19.769Z,3.90
2023-03-07T06:42:52.662Z,3.80
2023-03-07T06:43:24.823Z,3.90
2023-03-07T06:43:59.397Z,3.90
2023-03-07T06:44:31.456Z,3.80
2023-03-07T06:45:03.881Z,3.80
2023-03-07T06:45:38.007Z,3.60
2023-03-07T06:46:11.696Z,3.70
2023-03-07T06:46:43.896Z,3.70
2023-03-07T06:47:16.780Z,3.80
2023-03-07T06:47:48.728Z,3.80
2023-03-07T06:48:20.906Z,3.80
2023-03-07T06:48:55.151Z,3.80
2023-03-07T06:49:27.131Z,3.80
2023-03-07T06:49:59.001Z,3.90
2023-03-07T06:50:35.374Z,3.80
2023-03-07T06:51:09.787Z,3.80
2023-03-07T06:51:42.612Z,3.90
2023-03-07T06:52:14.472Z,3.90
2023-03-07T06:52:46.322Z,3.90
2023-03-07T06:53:19.264Z,4.00
2023-03-07T06:53:51.120Z,4.00
2023-03-07T06:54:23.004Z,4.00
2023-03-07T06:54:55.848Z,4.00
2023-03-07T06:55:27.699Z,4.00
2023-03-07T06:55:59.574Z,4.00
2023-03-07T06:56:34.234Z,4.10
2023-03-07T06:57:06.281Z,4.10
2023-03-07T06:57:38.194Z,4.10
2023-03-07T06:58:11.069Z,4.10
2023-03-07T06:58:42.942Z,4.10
2023-03-07T06:59:15.890Z,4.10
2023-03-07T06:59:47.766Z,4.00
2023-03-07T07:00:20.403Z,4.00
2023-03-07T07:00:53.258Z,4.00
2023-03-07T07:01:26.478Z,4.00
2023-03-07T07:01:58.511Z,4.00
2023-03-07T07:02:31.541Z,4.00
2023-03-07T07:03:03.752Z,4.00
2023-03-07T07:03:35.692Z,4.00
2023-03-07T07:04:08.615Z,4.00
2023-03-07T07:04:40.539Z,4.00
2023-03-07T07:05:12.913Z,4.00
2023-03-07T07:05:45.785Z,4.00
2023-03-07T07:06:17.673Z,4.00
2023-03-07T07:06:49.513Z,4.00
2023-03-07T07:07:22.395Z,4.00
2023-03-07T07:07:54.892Z,4.00
2023-03-07T07:08:26.751Z,4.00
2023-03-07T07:09:00.333Z,4.00
2023-03-07T07:09:32.390Z,4.00
2023-03-07T07:10:04.976Z,4.00
2023-03-07T07:10:37.870Z,4.00
2023-03-07T07:11:09.863Z,4.00
2023-03-07T07:11:41.770Z,4.00
2023-03-07T07:12:14.633Z,4.00
2023-03-07T07:12:46.486Z,4.00
2023-03-07T07:13:18.327Z,4.00
2023-03-07T07:13:51.593Z,4.00
2023-03-07T07:14:23.638Z,4.00
2023-03-07T07:14:55.535Z,4.00
2023-03-07T07:15:28.391Z,4.00
2023-03-07T07:16:05.306Z,4.00
2023-03-07T07:16:39.586Z,4.00
2023-03-07T07:17:11.583Z,4.00
2023-03-07T07:17:43.401Z,4.00
2023-03-07T07:18:16.192Z,4.00
2023-03-07T07:18:50.906Z,4.00
2023-03-07T07:19:23.755Z,3.90
2023-03-07T07:19:55.710Z,4.00
2023-03-07T07:20:28.420Z,3.90